createdAt,value
2022-11-05T00:02:06.575Z,47.93
2022-11-05T00:04:55.170Z,47.90
2022-11-05T00:07:49.432Z,47.69
2022-11-05T00:10:22.920Z,47.85
2022-11-05T00:13:12.481Z,47.84
2022-11-05T00:16:01.807Z,47.99
2022-11-05T00:18:32.569Z,47.91
2022-11-05T00:21:03.247Z,47.84
2022-11-05T00:23:51.588Z,47.93
2022-11-05T00:26:22.246Z,47.93
2022-11-05T00:28:52.928Z,48.06
2022-11-05T00:31:23.552Z,48.17
2022-11-05T00:33:54.206Z,47.96
2022-11-05T00:36:24.953Z,47.90
2022-11-05T00:38:55.733Z,47.95
2022-11-05T00:41:26.599Z,47.96
2022-11-05T00:44:14.887Z,47.91
2022-11-05T00:46:45.643Z,47.91
2022-11-05T00:49:31.664Z,47.86
2022-11-05T00:52:16.162Z,47.90
2022-11-05T00:54:46.901Z,47.99
2022-11-05T00:57:17.637Z,47.99
2022-11-05T00:59:48.280Z,47.87
2022-11-05T01:02:19.015Z,47.96
2022-11-05T01:04:49.749Z,47.81
2022-11-05T01:07:20.392Z,47.91
2022-11-05T01:09:50.993Z,47.66
2022-11-05T01:12:21.657Z,47.90
2022-11-05T01:14:52.280Z,47.84
2022-11-05T01:17:22.892Z,47.77
2022-11-05T01:19:53.695Z,47.82
2022-11-05T01:22:24.455Z,47.78
2022-11-05T01:24:55.145Z,47.88
2022-11-05T01:27:25.776Z,47.93
2022-11-05T01:29:56.615Z,48.09
2022-11-05T01:32:27.557Z,47.98
2022-11-05T01:34:58.162Z,47.96
2022-11-05T01:37:29.370Z,47.89
2022-11-05T01:40:00.107Z,47.93
2022-11-05T01:42:33.243Z,47.92
2022-11-05T01:45:12.482Z,48.04
2022-11-05T01:47:54.494Z,48.01
2022-11-05T01:50:31.870Z,48.07
2022-11-05T01:53:07.149Z,48.07
2022-11-05T01:55:42.075Z,48.28
2022-11-05T01:58:19.253Z,48.26
2022-11-05T02:00:50.395Z,48.27
2022-11-05T02:03:21.743Z,48.18
2022-11-05T02:05:54.306Z,48.32
2022-11-05T02:08:35.810Z,48.30
2022-11-05T02:11:07.071Z,48.29
2022-11-05T02:13:38.411Z,48.24
2022-11-05T02:16:19.637Z,48.15
2022-11-05T02:19:00.364Z,48.29
2022-11-05T02:22:12.906Z,48.39
2022-11-05T02:25:11.370Z,48.26
2022-11-05T02:28:05.176Z,48.26
2022-11-05T02:30:46.874Z,48.14
2022-11-05T02:33:30.446Z,48.24
2022-11-05T02:36:17.076Z,48.11
2022-11-05T02:38:58.373Z,48.15
2022-11-05T02:41:43.830Z,48.18
2022-11-05T02:44:25.279Z,48.15
2022-11-05T02:47:06.924Z,48.33
2022-11-05T02:49:49.344Z,48.38
2022-11-05T02:52:28.592Z,48.34
2022-11-05T02:55:07.248Z,48.34
2022-11-05T02:57:39.038Z,48.38
2022-11-05T03:00:46.035Z,48.22
2022-11-05T03:03:23.973Z,48.19
2022-11-05T03:06:27.384Z,48.17
2022-11-05T03:09:22.065Z,48.27
2022-11-05T03:12:03.446Z,48.28
2022-11-05T03:14:41.847Z,48.10
2022-11-05T03:17:22.311Z,48.08
2022-11-05T03:20:02.956Z,48.18
2022-11-05T03:22:39.843Z,48.33
2022-11-05T03:25:16.137Z,48.33
2022-11-05T03:27:51.296Z,48.21
2022-11-05T03:30:24.908Z,48.14
2022-11-05T03:33:00.690Z,48.20
2022-11-05T03:35:37.377Z,48.30
2022-11-05T03:38:13.641Z,48.34
2022-11-05T03:40:46.812Z,48.26
2022-11-05T03:43:18.816Z,48.25
2022-11-05T03:45:54.999Z,48.32
2022-11-05T03:48:28.495Z,48.40
2022-11-05T03:51:06.269Z,48.46
2022-11-05T03:53:41.995Z,48.47
2022-11-05T03:56:19.521Z,48.49
2022-11-05T03:58:56.041Z,48.48
2022-11-05T04:01:30.929Z,48.68
2022-11-05T04:04:01.866Z,48.58
2022-11-05T04:06:50.026Z,48.54
2022-11-05T04:09:38.750Z,48.60
2022-11-05T04:12:29.821Z,48.45
2022-11-05T04:15:00.407Z,48.58
2022-11-05T04:17:31.125Z,48.69
2022-11-05T04:20:19.357Z,48.52
2022-11-05T04:23:08.135Z,48.59
2022-11-05T04:25:39.018Z,48.70
2022-11-05T04:28:09.685Z,48.64
2022-11-05T04:30:40.420Z,48.57
2022-11-05T04:33:14.195Z,48.61
2022-11-05T04:35:46.975Z,48.54
2022-11-05T04:38:19.060Z,48.55
2022-11-05T04:40:50.128Z,48.70
2022-11-05T04:43:22.340Z,48.71
2022-11-05T04:45:53.342Z,48.66
2022-11-05T04:48:24.080Z,48.74
2022-11-05T04:50:54.704Z,48.56
2022-11-05T04:53:25.358Z,48.63
2022-11-05T04:55:56.191Z,48.60
2022-11-05T04:58:26.934Z,48.54
2022-11-05T05:00:57.622Z,48.63
2022-11-05T05:03:28.403Z,48.63
2022-11-05T05:06:03.911Z,48.71
2022-11-05T05:08:35.412Z,48.71
2022-11-05T05:11:08.964Z,48.80
2022-11-05T05:13:40.221Z,48.81
2022-11-05T05:16:17.546Z,48.84
2022-11-05T05:18:48.513Z,48.87
2022-11-05T05:21:38.796Z,48.85
2022-11-05T05:24:12.222Z,48.89
2022-11-05T05:26:44.743Z,48.93
2022-11-05T05:29:16.156Z,48.97
2022-11-05T05:31:47.248Z,49.15
2022-11-05T05:34:18.117Z,48.98
2022-11-05T05:36:48.706Z,48.92
2022-11-05T05:39:19.339Z,48.98
2022-11-05T05:41:49.979Z,48.87
2022-11-05T05:44:20.839Z,48.75
2022-11-05T05:46:51.674Z,48.93
2022-11-05T05:49:22.314Z,48.87
2022-11-05T05:51:53.149Z,48.97
2022-11-05T05:54:29.125Z,49.10
2022-11-05T05:57:02.510Z,49.01
2022-11-05T05:59:33.124Z,49.02
2022-11-05T06:02:03.910Z,48.92
2022-11-05T06:04:34.720Z,48.93
2022-11-05T06:07:05.554Z,49.03
2022-11-05T06:09:36.295Z,49.08
2022-11-05T06:12:07.904Z,49.14
2022-11-05T06:14:38.588Z,49.07
2022-11-05T06:17:10.792Z,49.00
2022-11-05T06:19:41.497Z,49.12
2022-11-05T06:22:12.142Z,49.24
2022-11-05T06:24:43.219Z,49.14
2022-11-05T06:27:13.814Z,49.04
2022-11-05T06:29:44.480Z,49.13
2022-11-05T06:32:15.115Z,49.19
2022-11-05T06:34:45.838Z,48.96
2022-11-05T06:37:16.444Z,49.07
2022-11-05T06:39:47.421Z,49.02
2022-11-05T06:42:19.418Z,49.00
2022-11-05T06:44:50.298Z,49.00
2022-11-05T06:47:21.287Z,49.17
2022-11-05T06:49:51.996Z,49.13
2022-11-05T06:52:23.591Z,49.23
2022-11-05T06:54:54.369Z,49.05
2022-11-05T06:57:25.121Z,49.14
2022-11-05T07:00:00.624Z,49.11
2022-11-05T07:02:33.115Z,49.16
2022-11-05T07:05:03.784Z,49.19
2022-11-05T07:07:34.413Z,49.28
2022-11-05T07:10:05.862Z,49.09
2022-11-05T07:12:36.710Z,49.41
2022-11-05T07:15:09.457Z,49.28
2022-11-05T07:17:41.492Z,49.27
2022-11-05T07:20:13.515Z,49.22
2022-11-05T07:22:44.396Z,49.29
2022-11-05T07:25:15.110Z,49.26
2022-11-05T07:27:45.846Z,49.23
2022-11-05T07:30:16.589Z,49.39
2022-11-05T07:32:47.322Z,49.34
2022-11-05T07:35:18.017Z,49.33
2022-11-05T07:37:50.037Z,49.38
2022-11-05T07:40:22.204Z,49.38
2022-11-05T07:42:54.992Z,49.33
2022-11-05T07:45:26.867Z,49.40
2022-11-05T07:47:59.088Z,49.37
2022-11-05T07:50:32.875Z,49.21
2022-11-05T07:53:02.778Z,49.38
2022-11-05T07:55:33.936Z,49.24
2022-11-05T07:58:04.649Z,49.14
2022-11-05T08:00:35.582Z,49.06
2022-11-05T08:03:08.996Z,48.98
2022-11-05T08:05:43.387Z,48.83
2022-11-05T08:08:15.325Z,48.70
2022-11-05T08:10:46.095Z,48.60
2022-11-05T08:13:17.773Z,48.60
2022-11-05T08:15:48.442Z,48.66
2022-11-05T08:18:20.543Z,48.62
2022-11-05T08:20:51.358Z,48.41
2022-11-05T08:23:22.152Z,48.46
2022-11-05T08:25:53.101Z,48.39
2022-11-05T08:28:24.735Z,48.22
2022-11-05T08:30:57.358Z,48.25
2022-11-05T08:33:31.300Z,48.13
2022-11-05T08:36:06.637Z,48.12
2022-11-05T08:38:37.500Z,48.07
2022-11-05T08:41:08.539Z,48.10
2022-11-05T08:43:39.838Z,48.26
2022-11-05T08:46:10.648Z,47.88
2022-11-05T08:48:41.270Z,47.94
2022-11-05T08:51:11.942Z,47.82
2022-11-05T08:53:42.570Z,47.72
2022-11-05T08:56:13.510Z,47.87
2022-11-05T08:58:44.211Z,47.76
2022-11-05T09:01:15.013Z,47.71
2022-11-05T09:03:45.878Z,47.77
2022-11-05T09:06:16.649Z,48.07
2022-11-05T09:08:47.707Z,47.91
2022-11-05T09:11:18.640Z,47.76
2022-11-05T09:13:49.375Z,47.84
2022-11-05T09:16:23.574Z,47.71
2022-11-05T09:18:56.082Z,47.78
2022-11-05T09:21:26.820Z,47.50
2022-11-05T09:23:57.531Z,47.37
2022-11-05T09:26:28.386Z,47.44
2022-11-05T09:28:59.121Z,47.09
2022-11-05T09:31:30.103Z,47.16
2022-11-05T09:34:01.008Z,46.81
2022-11-05T09:36:31.819Z,46.81
2022-11-05T09:39:02.833Z,47.00
2022-11-05T09:41:37.332Z,46.76
2022-11-05T09:44:13.180Z,46.92
2022-11-05T09:46:47.325Z,47.00
2022-11-05T09:49:28.032Z,47.27
2022-11-05T09:52:01.541Z,47.16
2022-11-05T09:54:33.734Z,47.26
2022-11-05T09:57:07.935Z,47.33
2022-11-05T09:59:44.849Z,47.33
2022-11-05T10:02:19.550Z,47.63
2022-11-05T10:04:54.061Z,47.33
2022-11-05T10:07:27.616Z,47.44
2022-11-05T10:10:01.828Z,47.47
2022-11-05T10:12:37.367Z,47.41
2022-11-05T10:15:16.833Z,47.52
2022-11-05T10:17:52.513Z,47.44
2022-11-05T10:20:32.503Z,47.41
2022-11-05T10:23:11.011Z,47.50
2022-11-05T10:25:46.599Z,47.51
2022-11-05T10:28:21.939Z,47.46
2022-11-05T10:30:57.818Z,47.60
2022-11-05T10:33:35.021Z,47.72
2022-11-05T10:36:09.106Z,47.44
2022-11-05T10:38:40.008Z,47.60
2022-11-05T10:41:29.156Z,47.60
2022-11-05T10:44:13.552Z,47.32
2022-11-05T10:46:58.746Z,47.39
2022-11-05T10:49:43.069Z,47.40
2022-11-05T10:52:23.391Z,47.31
2022-11-05T10:54:57.164Z,47.31
2022-11-05T10:57:30.666Z,47.61
2022-11-05T11:00:23.409Z,47.66
2022-11-05T11:02:57.516Z,47.80
2022-11-05T11:05:32.484Z,47.87
2022-11-05T11:08:19.504Z,47.74
2022-11-05T11:10:54.533Z,48.02
2022-11-05T11:13:28.382Z,47.93
2022-11-05T11:16:17.098Z,47.92
2022-11-05T11:18:48.016Z,47.94
2022-11-05T11:21:23.161Z,47.92
2022-11-05T11:23:59.281Z,47.78
2022-11-05T11:26:33.745Z,47.72
2022-11-05T11:29:13.762Z,48.05
2022-11-05T11:31:44.889Z,47.98
2022-11-05T11:34:24.374Z,48.03
2022-11-05T11:37:02.959Z,47.93
2022-11-05T11:39:34.825Z,47.97
2022-11-05T11:42:13.031Z,47.90
2022-11-05T11:44:47.658Z,47.95
2022-11-05T11:47:20.649Z,47.95
2022-11-05T11:49:53.944Z,48.10
2022-11-05T11:52:32.151Z,47.99
2022-11-05T11:55:21.720Z,47.93
2022-11-05T11:57:54.709Z,48.08
2022-11-05T12:00:27.203Z,47.98
2022-11-05T12:03:19.507Z,47.94
2022-11-05T12:06:01.114Z,48.14
2022-11-05T12:08:52.798Z,48.01
2022-11-05T12:11:34.453Z,48.17
2022-11-05T12:14:20.068Z,48.21
2022-11-05T12:17:05.152Z,48.10
2022-11-05T12:19:52.771Z,48.18
2022-11-05T12:22:33.091Z,47.94
2022-11-05T12:25:23.868Z,48.14
2022-11-05T12:28:11.892Z,47.95
2022-11-05T12:30:56.380Z,47.99
2022-11-05T12:33:43.121Z,47.86
2022-11-05T12:36:24.211Z,47.98
2022-11-05T12:39:29.735Z,47.88
2022-11-05T12:42:06.630Z,48.01
2022-11-05T12:44:51.862Z,47.89
2022-11-05T12:47:39.689Z,47.96
2022-11-05T12:50:25.852Z,47.70
2022-11-05T12:53:27.963Z,47.79
2022-11-05T12:56:04.755Z,47.58
2022-11-05T12:58:41.182Z,47.53
2022-11-05T13:01:16.159Z,47.59
2022-11-05T13:03:51.044Z,47.67
2022-11-05T13:06:26.075Z,47.40
2022-11-05T13:09:03.535Z,47.50
2022-11-05T13:11:41.063Z,47.49
2022-11-05T13:14:15.036Z,47.38
2022-11-05T13:16:48.951Z,47.28
2022-11-05T13:19:26.470Z,47.34
2022-11-05T13:22:01.584Z,47.25
2022-11-05T13:24:37.567Z,47.32
2022-11-05T13:27:22.193Z,47.12
2022-11-05T13:29:57.752Z,47.14
2022-11-05T13:32:35.882Z,47.36
2022-11-05T13:35:15.313Z,47.25
2022-11-05T13:38:07.757Z,47.17
2022-11-05T13:40:48.775Z,47.34
2022-11-05T13:43:35.320Z,47.29
2022-11-05T13:46:19.562Z,47.26
2022-11-05T13:49:32.647Z,47.31
2022-11-05T13:52:37.794Z,47.28
2022-11-05T13:55:28.765Z,47.36
2022-11-05T13:58:14.917Z,47.51
2022-11-05T14:00:58.329Z,47.43
2022-11-05T14:03:29.841Z,47.31
2022-11-05T14:06:05.765Z,47.46
2022-11-05T14:08:42.339Z,47.49
2022-11-05T14:11:24.400Z,47.31
2022-11-05T14:13:58.707Z,47.36
2022-11-05T14:16:41.609Z,47.50
2022-11-05T14:19:34.457Z,47.55
2022-11-05T14:22:37.648Z,47.42
2022-11-05T14:25:38.880Z,47.61
2022-11-05T14:28:39.805Z,47.54
2022-11-05T14:31:47.234Z,47.62
2022-11-05T14:34:42.039Z,47.56
2022-11-05T14:37:30.324Z,47.69
2022-11-05T14:40:23.863Z,47.61
2022-11-05T14:42:57.459Z,47.52
2022-11-05T14:45:32.376Z,47.51
2022-11-05T14:48:05.998Z,47.61
2022-11-05T14:50:40.735Z,47.56
2022-11-05T14:53:29.677Z,47.68
2022-11-05T14:56:06.569Z,47.61
2022-11-05T14:58:39.191Z,47.47
2022-11-05T15:01:31.172Z,47.63
2022-11-05T15:04:18.565Z,47.57
2022-11-05T15:07:28.752Z,47.64
2022-11-05T15:10:09.842Z,47.56
2022-11-05T15:12:45.878Z,47.66
2022-11-05T15:15:27.848Z,47.55
2022-11-05T15:18:13.814Z,47.48
2022-11-05T15:20:48.475Z,47.40
2022-11-05T15:23:22.739Z,47.17
2022-11-05T15:26:00.778Z,47.24
2022-11-05T15:28:36.931Z,47.32
2022-11-05T15:31:22.224Z,47.32
2022-11-05T15:33:53.158Z,47.21
2022-11-05T15:36:27.346Z,47.20
2022-11-05T15:39:27.889Z,47.29
2022-11-05T15:41:50.181Z,47.34
2022-11-05T15:44:33.078Z,47.29
2022-11-05T15:47:27.220Z,47.32
2022-11-05T15:50:01.276Z,47.41
2022-11-05T15:52:42.288Z,47.27
2022-11-05T15:55:24.738Z,47.47
2022-11-05T15:58:00.433Z,47.32
2022-11-05T16:00:33.157Z,47.53
2022-11-05T16:03:07.507Z,47.53
2022-11-05T16:05:46.402Z,47.53
2022-11-05T16:08:21.670Z,47.46
2022-11-05T16:10:55.112Z,47.45
2022-11-05T16:13:34.267Z,47.56
2022-11-05T16:16:07.484Z,47.57
2022-11-05T16:18:39.179Z,47.59
2022-11-05T16:21:12.537Z,47.46
2022-11-05T16:23:46.488Z,47.48
2022-11-05T16:29:29.823Z,47.53
2022-11-05T16:32:03.254Z,47.49
2022-11-05T16:34:38.104Z,47.46
2022-11-05T16:37:13.494Z,47.43
2022-11-05T16:39:44.601Z,47.47
2022-11-05T16:42:42.636Z,47.19
2022-11-05T16:45:14.959Z,47.01
2022-11-05T16:47:46.825Z,46.89
2022-11-05T16:50:24.408Z,46.55
2022-11-05T16:52:55.781Z,46.64
2022-11-05T16:55:26.787Z,46.64
2022-11-05T16:57:58.580Z,46.72
2022-11-05T17:00:29.644Z,46.65
2022-11-05T17:03:00.359Z,46.65
2022-11-05T17:05:32.520Z,46.84
2022-11-05T17:08:03.580Z,46.74
2022-11-05T17:10:34.452Z,46.69
2022-11-05T17:13:05.676Z,46.68
2022-11-05T17:15:36.860Z,46.63
2022-11-05T17:18:09.927Z,46.59
2022-11-05T17:20:45.875Z,46.53
2022-11-05T17:23:18.299Z,46.58
2022-11-05T17:25:51.069Z,46.61
2022-11-05T17:28:22.644Z,46.61
2022-11-05T17:30:54.248Z,46.71
2022-11-05T17:33:26.780Z,46.71
2022-11-05T17:35:58.285Z,46.62
2022-11-05T17:38:30.095Z,46.56
2022-11-05T17:41:01.650Z,46.64
2022-11-05T17:43:32.443Z,46.78
2022-11-05T17:46:07.723Z,46.75
2022-11-05T17:48:39.384Z,46.66
2022-11-05T17:51:15.107Z,46.76
2022-11-05T17:53:47.468Z,46.64
2022-11-05T17:56:32.118Z,46.77
2022-11-05T17:59:05.353Z,46.76
2022-11-05T18:01:41.447Z,46.79
2022-11-05T18:04:12.604Z,46.69
2022-11-05T18:06:43.961Z,46.75
2022-11-05T18:09:15.084Z,46.73
2022-11-05T18:11:46.003Z,46.52
2022-11-05T18:14:21.292Z,46.72
2022-11-05T18:17:00.101Z,46.67
2022-11-05T18:19:31.248Z,46.75
2022-11-05T18:22:02.218Z,46.79
2022-11-05T18:24:33.314Z,46.72
2022-11-05T18:27:04.449Z,46.73
2022-11-05T18:29:35.497Z,46.73
2022-11-05T18:32:07.718Z,46.62
2022-11-05T18:34:38.810Z,46.74
2022-11-05T18:37:09.955Z,46.79
2022-11-05T18:39:41.112Z,46.80
2022-11-05T18:42:12.151Z,46.76
2022-11-05T18:44:42.991Z,46.66
2022-11-05T18:47:14.364Z,46.66
2022-11-05T18:49:45.312Z,46.60
2022-11-05T18:52:16.356Z,46.77
2022-11-05T18:54:47.274Z,46.65
2022-11-05T18:57:18.234Z,46.66
2022-11-05T18:59:49.159Z,46.65
2022-11-05T19:02:20.367Z,46.57
2022-11-05T19:05:14.384Z,46.50
2022-11-05T19:07:42.875Z,46.62
2022-11-05T19:10:14.035Z,46.58
2022-11-05T19:12:45.172Z,46.61
2022-11-05T19:15:15.990Z,46.64
2022-11-05T19:17:47.046Z,46.68
2022-11-05T19:20:18.200Z,46.47
2022-11-05T19:22:49.345Z,46.58
2022-11-05T19:25:20.666Z,46.44
2022-11-05T19:27:53.684Z,46.55
2022-11-05T19:30:24.772Z,46.55
2022-11-05T19:32:55.789Z,46.44
2022-11-05T19:35:26.793Z,46.47
2022-11-05T19:37:57.958Z,46.51
2022-11-05T19:40:28.803Z,46.63
2022-11-05T19:43:00.034Z,46.43
2022-11-05T19:45:44.127Z,46.36
2022-11-05T19:48:19.457Z,46.54
2022-11-05T19:50:50.989Z,46.52
2022-11-05T19:53:22.104Z,46.55
2022-11-05T19:55:53.186Z,46.39
2022-11-05T19:58:24.367Z,46.58
2022-11-05T20:00:57.935Z,46.47
2022-11-05T20:03:29.121Z,46.43
2022-11-05T20:06:04.829Z,46.53
2022-11-05T20:08:47.757Z,46.57
2022-11-05T20:11:27.847Z,46.53
2022-11-05T20:13:59.109Z,46.63
2022-11-05T20:16:32.364Z,46.64
2022-11-05T20:19:07.081Z,46.59
2022-11-05T20:21:38.204Z,46.50
2022-11-05T20:24:11.704Z,46.65
2022-11-05T20:26:42.765Z,46.68
2022-11-05T20:29:14.043Z,46.69
2022-11-05T20:31:44.861Z,46.64
2022-11-05T20:34:15.905Z,46.57
2022-11-05T20:36:46.948Z,46.20
2022-11-05T20:39:18.710Z,46.20
2022-11-05T20:41:49.838Z,46.11
2022-11-05T20:44:20.701Z,46.04
2022-11-05T20:46:51.642Z,46.03
2022-11-05T20:49:25.358Z,46.08
2022-11-05T20:51:56.684Z,45.98
2022-11-05T20:54:27.749Z,46.07
2022-11-05T20:56:58.484Z,45.96
2022-11-05T20:59:29.558Z,45.87
2022-11-05T21:02:00.470Z,45.91
2022-11-05T21:04:31.726Z,46.06
2022-11-05T21:07:02.456Z,46.06
2022-11-05T21:09:33.396Z,46.11
2022-11-05T21:12:13.471Z,46.00
2022-11-05T21:14:45.318Z,46.29
2022-11-05T21:17:16.169Z,46.40
2022-11-05T21:19:47.460Z,46.45
2022-11-05T21:22:18.241Z,46.43
2022-11-05T21:24:49.088Z,46.51
2022-11-05T21:27:19.828Z,46.44
2022-11-05T21:29:50.867Z,46.58
2022-11-05T21:32:21.551Z,46.52
2022-11-05T21:34:52.472Z,46.56
2022-11-05T21:37:23.184Z,46.57
2022-11-05T21:39:54.549Z,46.64
2022-11-05T21:42:25.230Z,46.66
2022-11-05T21:45:00.248Z,46.75
2022-11-05T21:47:34.003Z,46.76
2022-11-05T21:50:05.175Z,46.76
2022-11-05T21:52:53.706Z,46.74
2022-11-05T21:55:42.246Z,46.61
2022-11-05T21:58:33.964Z,46.70
2022-11-05T22:01:05.213Z,46.78
2022-11-05T22:03:35.951Z,46.65
2022-11-05T22:06:07.231Z,46.76
2022-11-05T22:08:38.101Z,46.73
2022-11-05T22:11:08.882Z,46.78
2022-11-05T22:13:39.725Z,46.75
2022-11-05T22:16:11.531Z,46.82
2022-11-05T22:18:42.832Z,46.84
2022-11-05T22:21:19.169Z,46.84
2022-11-05T22:23:49.937Z,46.93
2022-11-05T22:26:21.292Z,46.99
2022-11-05T22:28:53.851Z,46.90
2022-11-05T22:31:30.517Z,47.10
2022-11-05T22:34:04.727Z,47.00
2022-11-05T22:36:36.079Z,47.10
2022-11-05T22:39:07.387Z,47.10
2022-11-05T22:41:38.112Z,47.06
2022-11-05T22:44:10.487Z,47.17
2022-11-05T22:46:44.135Z,47.13
2022-11-05T22:49:13.198Z,47.24
2022-11-05T22:51:43.855Z,47.18
2022-11-05T22:54:15.143Z,47.13
2022-11-05T22:56:46.213Z,47.31
2022-11-05T22:59:17.671Z,47.18
2022-11-05T23:01:49.474Z,47.18
2022-11-05T23:04:20.207Z,47.27
2022-11-05T23:07:08.400Z,47.19
2022-11-05T23:09:57.313Z,47.15
2022-11-05T23:12:32.623Z,47.25
2022-11-05T23:15:06.692Z,47.18
2022-11-05T23:18:03.338Z,47.21
2022-11-05T23:20:51.779Z,47.14
2022-11-05T23:23:40.368Z,47.31
2022-11-05T23:26:24.874Z,47.14
2022-11-05T23:28:55.511Z,47.15
2022-11-05T23:31:43.753Z,47.24
2022-11-05T23:34:14.383Z,47.16
2022-11-05T23:37:03.030Z,47.25
2022-11-05T23:39:37.008Z,47.15
2022-11-05T23:42:29.678Z,47.14
2022-11-05T23:45:18.224Z,47.22
2022-11-05T23:48:06.666Z,47.31
2022-11-05T23:50:40.051Z,47.20
2022-11-05T23:53:11.775Z,47.18
2022-11-05T23:55:42.673Z,47.23
2022-11-05T23:58:13.974Z,47.20
